createdAt,value
2018-04-08T00:00:36.424Z,1.27
2018-04-08T00:03:06.625Z,1.40
2018-04-08T00:05:35.828Z,1.10
2018-04-08T00:08:09.777Z,1.20
2018-04-08T00:10:40.561Z,1.30
2018-04-08T00:13:11.134Z,1.40
2018-04-08T00:15:39.541Z,1.23
2018-04-08T00:18:15.493Z,1.23
2018-04-08T00:20:44.695Z,1.03
2018-04-08T00:23:13.972Z,1.23
2018-04-08T00:25:42.543Z,1.20
2018-04-08T00:28:13.936Z,1.10
2018-04-08T00:30:44.102Z,1.20
2018-04-08T00:33:13.421Z,1.10
2018-04-08T00:35:42.297Z,1.10
2018-04-08T00:38:14.403Z,1.10
2018-04-08T00:40:44.100Z,1.20
2018-04-08T00:43:12.519Z,1.03
2018-04-08T00:45:43.023Z,1.40
2018-04-08T00:48:16.629Z,1.10
2018-04-08T00:50:48.862Z,1.87
2018-04-08T00:53:17.986Z,1.50
2018-04-08T00:55:48.385Z,1.43
2018-04-08T00:58:38.748Z,1.33
2018-04-08T01:01:07.858Z,1.10
2018-04-08T01:03:38.108Z,1.40
2018-04-08T01:06:07.724Z,1.40
2018-04-08T01:08:35.833Z,1.47
2018-04-08T01:11:04.013Z,1.57
2018-04-08T01:13:35.477Z,1.50
2018-04-08T01:16:08.403Z,1.30
2018-04-08T01:18:38.586Z,1.20
2018-04-08T01:21:08.373Z,1.13
2018-04-08T01:23:38.712Z,1.20
2018-04-08T01:26:07.094Z,1.43
2018-04-08T01:28:37.397Z,1.30
2018-04-08T01:31:06.173Z,1.30
2018-04-08T01:33:35.293Z,1.30
2018-04-08T01:36:05.547Z,1.27
2018-04-08T01:38:37.104Z,1.20
2018-04-08T01:41:06.401Z,1.10
2018-04-08T01:43:36.516Z,1.17
2018-04-08T01:46:10.069Z,1.00
2018-04-08T01:48:46.818Z,1.30
2018-04-08T01:51:17.042Z,1.20
2018-04-08T01:53:46.522Z,1.10
2018-04-08T01:56:15.061Z,1.30
2018-04-08T01:59:06.676Z,1.10
2018-04-08T02:01:36.324Z,1.10
2018-04-08T02:04:07.375Z,1.30
2018-04-08T02:06:39.275Z,1.10
2018-04-08T02:09:25.277Z,1.40
2018-04-08T02:11:54.640Z,1.00
2018-04-08T02:14:24.016Z,1.30
2018-04-08T02:16:54.008Z,1.17
2018-04-08T02:19:23.790Z,1.20
2018-04-08T02:21:53.801Z,1.07
2018-04-08T02:24:24.257Z,0.93
2018-04-08T02:26:53.482Z,1.07
2018-04-08T02:29:22.463Z,1.20
2018-04-08T02:31:56.149Z,1.10
2018-04-08T02:34:26.208Z,1.23
2018-04-08T02:36:54.617Z,1.20
2018-04-08T02:39:27.385Z,1.20
2018-04-08T02:41:56.693Z,1.00
2018-04-08T02:44:26.197Z,1.20
2018-04-08T02:46:56.255Z,1.50
2018-04-08T02:49:26.516Z,1.13
2018-04-08T02:51:57.605Z,1.30
2018-04-08T02:54:26.903Z,1.33
2018-04-08T02:56:55.443Z,1.20
2018-04-08T02:59:24.253Z,1.00
2018-04-08T03:01:54.481Z,1.03
2018-04-08T03:04:23.626Z,1.27
2018-04-08T03:06:53.900Z,1.40
2018-04-08T03:09:26.462Z,0.83
2018-04-08T03:11:58.589Z,1.10
2018-04-08T03:14:27.943Z,1.00
2018-04-08T03:16:57.155Z,1.17
2018-04-08T03:19:33.484Z,1.27
2018-04-08T03:22:02.596Z,1.20
2018-04-08T03:24:31.827Z,1.00
2018-04-08T03:27:03.038Z,1.53
2018-04-08T03:29:32.335Z,1.20
2018-04-08T03:32:01.663Z,1.10
2018-04-08T03:34:31.148Z,1.00
2018-04-08T03:37:00.506Z,1.33
2018-04-08T03:42:04.952Z,0.97
2018-04-08T03:44:34.188Z,1.00
2018-04-08T03:47:02.525Z,1.23
2018-04-08T03:49:31.791Z,1.10
2018-04-08T03:52:02.896Z,1.40
2018-04-08T03:54:31.650Z,1.17
2018-04-08T03:57:01.125Z,1.20
2018-04-08T03:59:30.132Z,1.07
2018-04-08T04:02:00.804Z,1.00
2018-04-08T04:04:29.649Z,1.30
2018-04-08T04:06:59.479Z,1.03
2018-04-08T04:09:27.858Z,1.10
2018-04-08T04:11:57.154Z,0.83
2018-04-08T04:14:27.297Z,1.23
2018-04-08T04:16:56.411Z,1.30
2018-04-08T04:19:37.214Z,1.20
2018-04-08T04:22:18.047Z,1.30
2018-04-08T04:24:59.892Z,1.30
2018-04-08T04:27:29.820Z,0.90
2018-04-08T04:29:58.928Z,0.90
2018-04-08T04:32:28.329Z,1.23
2018-04-08T04:34:58.076Z,1.50
2018-04-08T04:37:28.533Z,1.17
2018-04-08T04:39:58.031Z,1.13
2018-04-08T04:42:27.223Z,1.23
2018-04-08T04:44:56.327Z,1.00
2018-04-08T04:47:26.784Z,1.17
2018-04-08T04:49:55.376Z,1.30
2018-04-08T04:52:24.647Z,1.10
2018-04-08T04:54:54.733Z,1.10
2018-04-08T04:57:27.533Z,1.10
2018-04-08T04:59:58.097Z,0.93
2018-04-08T05:02:26.652Z,1.30
2018-04-08T05:04:55.385Z,1.10
2018-04-08T05:07:26.650Z,1.00
2018-04-08T05:10:03.854Z,0.90
2018-04-08T05:12:32.259Z,1.03
2018-04-08T05:15:01.688Z,1.60
2018-04-08T05:17:31.656Z,1.40
2018-04-08T05:20:00.397Z,1.30
2018-04-08T05:22:29.366Z,1.00
2018-04-08T05:24:58.475Z,1.30
2018-04-08T05:27:29.278Z,1.13
2018-04-08T05:43:46.031Z,0.97
2018-04-08T05:46:15.165Z,1.20
2018-04-08T05:48:45.428Z,1.30
2018-04-08T05:51:16.137Z,1.37
2018-04-08T05:54:02.304Z,1.30
2018-04-08T05:56:31.693Z,1.53
2018-04-08T05:59:00.509Z,1.20
2018-04-08T06:01:29.996Z,1.33
2018-04-08T06:03:59.669Z,1.30
2018-04-08T06:06:31.318Z,1.13
2018-04-08T06:09:01.277Z,1.20
2018-04-08T06:11:32.841Z,1.27
2018-04-08T06:14:10.277Z,1.20
2018-04-08T06:16:38.921Z,1.10
2018-04-08T06:19:08.963Z,1.30
2018-04-08T06:21:39.603Z,1.10
2018-04-08T06:24:29.107Z,1.20
2018-04-08T06:26:58.940Z,1.30
2018-04-08T06:29:29.122Z,1.00
2018-04-08T06:31:59.365Z,1.43
2018-04-08T06:37:39.175Z,1.20
2018-04-08T06:40:09.399Z,1.33
2018-04-08T06:42:37.749Z,1.10
2018-04-08T06:45:08.402Z,1.00
2018-04-08T06:47:44.788Z,1.20
2018-04-08T06:50:14.326Z,1.10
2018-04-08T06:52:44.212Z,1.07
2018-04-08T06:55:15.763Z,1.00
2018-04-08T06:57:48.935Z,1.00
2018-04-08T07:00:17.381Z,1.00
2018-04-08T07:02:47.563Z,0.90
2018-04-08T07:05:18.012Z,1.10
2018-04-08T07:10:52.409Z,1.20
2018-04-08T07:13:21.592Z,1.00
2018-04-08T07:15:51.028Z,0.97
2018-04-08T07:18:21.510Z,1.10
2018-04-08T07:20:57.305Z,1.30
2018-04-08T07:23:25.780Z,1.07
2018-04-08T07:25:55.508Z,1.20
2018-04-08T07:28:25.028Z,1.30
2018-04-08T07:31:01.855Z,1.10
2018-04-08T07:33:31.346Z,1.43
2018-04-08T07:36:19.518Z,1.13
2018-04-08T07:38:50.391Z,1.00
2018-04-08T07:41:27.451Z,1.20
2018-04-08T07:43:56.068Z,1.10
2018-04-08T07:46:26.138Z,1.10
2018-04-08T07:48:54.967Z,1.10
2018-04-08T12:38:50.187Z,3.20
2018-04-08T12:41:31.943Z,3.80
2018-04-08T12:47:17.113Z,3.77
2018-04-08T12:52:36.731Z,3.40
2018-04-08T12:55:07.799Z,3.97
2018-04-08T12:57:37.270Z,3.40
2018-04-08T13:00:08.445Z,3.40
2018-04-08T13:02:38.869Z,3.03
2018-04-08T13:05:11.266Z,3.33
2018-04-08T13:07:42.323Z,3.40
2018-04-08T13:10:10.945Z,3.00
2018-04-08T13:12:42.013Z,2.83
2018-04-08T13:15:11.253Z,3.83
2018-04-08T13:17:39.863Z,3.40
2018-04-08T13:20:08.740Z,4.10
2018-04-08T13:22:38.493Z,3.47
2018-04-08T13:25:07.945Z,3.53
2018-04-08T13:27:36.656Z,2.80
2018-04-08T13:30:08.011Z,3.20
2018-04-08T13:32:37.080Z,2.80
2018-04-08T13:35:07.271Z,2.77
2018-04-08T13:37:41.262Z,2.70
2018-04-08T13:40:20.577Z,2.67
2018-04-08T13:42:51.680Z,2.90
2018-04-08T13:45:24.262Z,2.67
2018-04-08T13:47:53.825Z,2.67
2018-04-08T13:50:30.448Z,2.33
2018-04-08T13:53:00.679Z,2.47
2018-04-08T13:55:30.720Z,2.40
2018-04-08T13:58:01.153Z,2.20
2018-04-08T14:00:37.369Z,2.57
2018-04-08T14:03:06.935Z,2.30
2018-04-08T14:05:37.521Z,2.60
2018-04-08T14:08:07.592Z,2.50
2018-04-08T14:10:40.784Z,2.50
2018-04-08T14:13:10.105Z,2.60
2018-04-08T14:15:38.576Z,2.43
2018-04-08T14:18:07.998Z,2.17
2018-04-08T14:20:37.397Z,2.87
2018-04-08T14:23:06.955Z,2.20
2018-04-08T14:25:37.180Z,2.30
2018-04-08T14:28:06.464Z,2.20
2018-04-08T14:30:37.222Z,2.37
2018-04-08T14:33:05.710Z,2.53
2018-04-08T14:35:34.270Z,2.07
2018-04-08T14:38:02.693Z,1.93
2018-04-08T14:40:37.947Z,2.00
2018-04-08T14:43:07.805Z,2.30
2018-04-08T14:45:36.198Z,2.03
2018-04-08T14:48:05.816Z,2.00
2018-04-08T14:50:39.909Z,2.23
2018-04-08T14:53:08.329Z,2.40
2018-04-08T14:55:37.702Z,2.17
2018-04-08T14:58:07.976Z,2.40
2018-04-08T15:00:38.242Z,2.33
2018-04-08T15:03:08.244Z,1.70
2018-04-08T15:05:38.509Z,1.97
2018-04-08T15:08:10.009Z,2.20
2018-04-08T15:10:39.690Z,1.90
2018-04-08T15:13:11.429Z,2.10
2018-04-08T15:15:40.676Z,2.23
2018-04-08T15:18:10.259Z,2.00
2018-04-08T15:20:41.828Z,1.93
2018-04-08T15:23:13.740Z,2.40
2018-04-08T15:28:19.516Z,2.13
2018-04-08T15:30:53.540Z,2.43
2018-04-08T15:33:22.595Z,2.10
2018-04-08T15:35:54.804Z,2.17
2018-04-08T15:38:23.903Z,2.50
2018-04-08T15:40:54.272Z,2.57
2018-04-08T15:43:22.682Z,2.00
2018-04-08T15:45:52.001Z,2.40
2018-04-08T15:48:22.765Z,2.17
2018-04-08T15:50:52.026Z,2.20
2018-04-08T15:53:22.826Z,2.17
2018-04-08T15:55:51.176Z,2.37
2018-04-08T15:58:20.099Z,2.10
2018-04-08T16:00:48.533Z,2.23
2018-04-08T16:03:23.570Z,2.23
2018-04-08T16:05:55.681Z,2.30
2018-04-08T16:08:25.777Z,2.50
2018-04-08T16:10:56.023Z,2.83
2018-04-08T16:13:26.164Z,2.70
2018-04-08T16:15:57.321Z,2.47
2018-04-08T16:18:26.512Z,2.70
2018-04-08T16:21:09.574Z,2.30
2018-04-08T16:23:38.624Z,2.50
2018-04-08T16:28:42.334Z,2.80
2018-04-08T16:31:12.224Z,2.40
2018-04-08T16:33:41.003Z,2.20
2018-04-08T16:36:09.400Z,2.10
2018-04-08T16:38:40.868Z,2.43
2018-04-08T16:41:20.525Z,2.20
2018-04-08T16:43:49.758Z,2.83
2018-04-08T16:46:18.135Z,2.63
2018-04-08T16:48:47.900Z,2.33
2018-04-08T16:51:16.676Z,2.60
2018-04-08T16:53:47.916Z,2.40
2018-04-08T16:56:16.980Z,2.17
2018-04-08T16:58:45.848Z,2.60
2018-04-08T17:01:14.282Z,2.83
2018-04-08T17:03:51.056Z,2.70
2018-04-08T17:06:20.556Z,4.33
2018-04-08T17:08:50.184Z,3.37
2018-04-08T17:11:19.950Z,3.47
2018-04-08T17:13:52.018Z,3.90
2018-04-08T17:16:21.759Z,10.27
2018-04-08T17:18:57.631Z,8.10
2018-04-08T17:21:26.100Z,31.10
2018-04-08T17:23:56.459Z,23.03
2018-04-08T17:26:26.307Z,23.87
2018-04-08T17:28:56.313Z,17.67
2018-04-08T17:31:24.712Z,12.97
2018-04-08T17:33:54.155Z,14.77
2018-04-08T17:36:22.984Z,14.70
2018-04-08T17:38:51.364Z,18.40
2018-04-08T17:41:20.633Z,14.73
2018-04-08T17:43:49.431Z,14.00
2018-04-08T17:46:20.391Z,15.77
2018-04-08T17:48:48.740Z,13.60
2018-04-08T17:51:17.160Z,12.80
2018-04-08T17:53:46.332Z,14.73
2018-04-08T17:56:15.264Z,12.97
2018-04-08T17:58:43.657Z,13.37
2018-04-08T18:01:12.000Z,13.53
2018-04-08T18:03:40.808Z,11.43
2018-04-08T18:06:10.536Z,11.07
2018-04-08T18:08:38.861Z,9.17
2018-04-08T18:11:07.268Z,6.80
2018-04-08T18:13:35.611Z,7.47
2018-04-08T18:16:04.153Z,6.33
2018-04-08T18:18:33.240Z,6.50
2018-04-08T18:21:01.700Z,6.97
2018-04-08T18:23:30.004Z,8.33
2018-04-08T18:25:58.358Z,10.03
2018-04-08T18:28:27.607Z,9.50
2018-04-08T18:30:56.766Z,9.90
2018-04-08T18:33:25.699Z,8.90
2018-04-08T18:35:54.067Z,8.80
2018-04-08T18:38:22.380Z,8.90
2018-04-08T18:40:50.768Z,8.13
2018-04-08T18:43:20.080Z,8.97
2018-04-08T18:45:48.489Z,8.80
2018-04-08T18:48:17.092Z,8.67
2018-04-08T18:50:46.412Z,7.90
2018-04-08T18:53:15.581Z,8.43
2018-04-08T18:55:44.757Z,9.10
2018-04-08T18:58:13.440Z,9.73
2018-04-08T19:00:41.885Z,7.93
2018-04-08T19:03:10.188Z,8.07
2018-04-08T19:05:38.665Z,8.07
2018-04-08T19:08:07.887Z,8.20
2018-04-08T19:10:36.244Z,7.80
2018-04-08T19:13:05.243Z,7.93
2018-04-08T19:15:34.487Z,8.27
2018-04-08T19:18:11.241Z,8.07
2018-04-08T19:20:45.672Z,7.60
2018-04-08T19:23:14.029Z,7.83
2018-04-08T19:25:43.265Z,7.67
2018-04-08T19:28:24.112Z,7.23
2018-04-08T19:30:52.413Z,7.40
2018-04-08T19:33:20.808Z,7.67
2018-04-08T19:35:50.279Z,6.87
2018-04-08T19:38:20.072Z,6.73
2018-04-08T19:40:48.376Z,7.37
2018-04-08T19:43:17.511Z,6.13
2018-04-08T19:45:45.881Z,7.57
2018-04-08T19:48:14.684Z,7.07
2018-04-08T19:50:43.137Z,5.97
2018-04-08T19:53:11.487Z,6.60
2018-04-08T19:55:41.566Z,6.67
2018-04-08T19:58:09.907Z,6.43
2018-04-08T20:00:40.033Z,6.03
2018-04-08T20:03:08.475Z,5.87
2018-04-08T20:05:37.234Z,6.40
2018-04-08T20:08:05.722Z,6.00
2018-04-08T20:10:34.099Z,6.17
2018-04-08T20:13:03.844Z,6.07
2018-04-08T20:15:32.901Z,6.37
2018-04-08T20:18:02.198Z,6.10
2018-04-08T20:20:31.442Z,6.07
2018-04-08T20:23:02.764Z,6.30
2018-04-08T20:25:31.944Z,6.33
2018-04-08T20:28:01.217Z,5.90
2018-04-08T20:30:29.607Z,5.47
2018-04-08T20:32:58.192Z,6.03
2018-04-08T20:35:27.433Z,5.63
2018-04-08T20:37:56.634Z,5.93
2018-04-08T20:40:24.921Z,5.77
2018-04-08T20:42:53.320Z,5.97
2018-04-08T20:45:23.444Z,5.03
2018-04-08T20:47:51.896Z,6.37
2018-04-08T20:50:22.027Z,5.57
2018-04-08T20:52:50.424Z,5.90
2018-04-08T20:55:19.580Z,5.80
2018-04-08T20:57:48.500Z,5.57
2018-04-08T21:00:17.543Z,5.57
2018-04-08T21:02:46.302Z,6.17
2018-04-08T21:05:14.659Z,5.27
2018-04-08T21:07:42.992Z,5.77
2018-04-08T21:10:11.835Z,5.10
2018-04-08T21:12:41.761Z,5.13
2018-04-08T21:15:10.248Z,5.50
2018-04-08T21:17:38.634Z,5.40
2018-04-08T21:20:06.935Z,5.00
2018-04-08T21:22:35.264Z,5.63
2018-04-08T21:25:04.372Z,4.90
2018-04-08T21:27:36.408Z,4.77
2018-04-08T21:30:05.640Z,5.37
2018-04-08T21:32:33.973Z,4.63
2018-04-08T21:35:02.351Z,4.70
2018-04-08T21:37:31.612Z,4.50
2018-04-08T21:40:08.144Z,4.97
2018-04-08T21:42:38.260Z,4.37
2018-04-08T21:45:06.860Z,4.60
2018-04-08T21:47:36.622Z,4.27
2018-04-08T21:50:06.039Z,4.27
2018-04-08T21:52:34.382Z,4.40
2018-04-08T21:55:03.324Z,4.40
2018-04-08T21:57:32.572Z,4.77
2018-04-08T22:00:00.954Z,4.23
2018-04-08T22:02:40.303Z,4.93
2018-04-08T22:05:09.535Z,4.40
2018-04-08T22:07:38.327Z,4.43
2018-04-08T22:10:07.529Z,4.73
2018-04-08T22:12:35.957Z,4.23
2018-04-08T22:15:05.208Z,4.23
2018-04-08T22:17:34.415Z,4.60
2018-04-08T22:20:02.807Z,4.90
2018-04-08T22:22:33.179Z,4.47
2018-04-08T22:25:01.565Z,4.00
2018-04-08T22:27:30.835Z,4.67
2018-04-08T22:30:00.232Z,4.47
2018-04-08T22:32:28.588Z,4.50
2018-04-08T22:35:01.314Z,4.43
2018-04-08T22:37:30.482Z,4.30
2018-04-08T22:39:58.819Z,4.07
2018-04-08T22:42:27.173Z,3.87
2018-04-08T22:44:58.411Z,4.23
2018-04-08T22:47:27.757Z,4.20
2018-04-08T22:49:56.093Z,4.47
2018-04-08T22:52:25.828Z,4.67
2018-04-08T22:54:54.246Z,4.03
2018-04-08T22:57:22.601Z,4.63
2018-04-08T22:59:50.975Z,3.80
2018-04-08T23:02:19.877Z,4.33
2018-04-08T23:04:48.784Z,4.43
2018-04-08T23:07:17.834Z,4.17
2018-04-08T23:09:46.184Z,4.30
2018-04-08T23:12:14.563Z,4.30
2018-04-08T23:14:43.781Z,4.70
2018-04-08T23:17:12.473Z,4.43
2018-04-08T23:19:40.824Z,4.47
2018-04-08T23:22:09.924Z,3.93
2018-04-08T23:24:39.084Z,4.20
2018-04-08T23:27:09.007Z,3.90
2018-04-08T23:29:40.201Z,4.10
2018-04-08T23:32:08.959Z,4.00
2018-04-08T23:34:37.347Z,4.07
2018-04-08T23:37:06.175Z,3.67
2018-04-08T23:39:34.552Z,3.53
2018-04-08T23:42:04.489Z,3.60
2018-04-08T23:44:33.728Z,4.10
2018-04-08T23:47:02.054Z,3.90
2018-04-08T23:49:30.433Z,3.87
2018-04-08T23:51:59.663Z,4.20
2018-04-08T23:54:27.996Z,4.67
2018-04-08T23:56:59.191Z,4.37
2018-04-08T23:59:28.332Z,4.07
